Teddy Meyer — WDF9635 — position and weather

sailwx.info

Track history (hours):
 
Tides and Currents Weather Stations Pressure Air Temp Water Temp Dewpoint Dewpoint Depression Visibility Wind Speed Wind Dir Waves Ship Positions

Teddy Meyer

Owner: LeBeouf Bros. Towing, LLC, Houma, LA. More information available from US FCC via Universal Licensing System and Coast Guard Vessel Documentation Center.

Last reported at 2016-Jul-24 10:33 UTC. Time now 2016-Jul-26 19:51 UTC.
Position N 30°00' W 089°56'.

; draft 3 m.

MMSI: 367507220.

Date/timePositionNaut miles runAvg speedWind from/ knotsBaromVisibWave heightAir tempDewpointWater temp
2016-Jul-24 10:33N 30°00' W 089°56'5 5.5
2016-Jul-24 09:33N 29°58' W 090°02'1 1.1
2016-Jul-24 08:33N 29°57' W 090°01'2 1.7
2016-Jul-24 07:33N 29°56' W 089°60'0 0.0
2016-Jul-24 06:34N 29°56' W 089°60'0 0.0
2016-Jul-24 05:33N 29°56' W 089°60'0 0.0
2016-Jul-24 04:33N 29°56' W 089°60'0 0.0
2016-Jul-24 03:33N 29°56' W 089°60'0 0.0
2016-Jul-24 02:34N 29°56' W 089°60'0 0.0
2016-Jul-24 01:34N 29°56' W 089°60'0 0.0
2016-Jul-24 00:33N 29°56' W 089°60'0 0.0
2016-Jul-23 23:33N 29°56' W 089°60'0 0.0
2016-Jul-23 22:34N 29°56' W 089°60'0 0.0
2016-Jul-23 21:34N 29°56' W 089°60'0 0.0
2016-Jul-23 20:34N 29°56' W 089°60'0 0.0
2016-Jul-23 19:34N 29°56' W 089°60'0 0.0
2016-Jul-23 18:34N 29°56' W 089°60'0 0.0
2016-Jul-23 17:33N 29°56' W 089°60'0 0.0
2016-Jul-23 16:33N 29°56' W 089°60'0 0.0
2016-Jul-23 15:33N 29°56' W 089°60'0 0.0
2016-Jul-23 14:33N 29°56' W 089°60'0 0.0
2016-Jul-23 13:34N 29°56' W 089°60'0 0.0
2016-Jul-23 12:33N 29°56' W 089°60'1 1.1
2016-Jul-23 11:34N 29°56' W 089°58'0 0.0
2016-Jul-23 10:34N 29°56' W 089°58'0 0.0
2016-Jul-23 09:33N 29°56' W 089°58'0 0.0
2016-Jul-23 08:33N 29°56' W 089°58'0 0.0
2016-Jul-23 07:33N 29°56' W 089°58'0 0.1
2016-Jul-23 06:34N 29°56' W 089°58'0 0.0
2016-Jul-23 04:33N 29°56' W 089°59'0 0.0
2016-Jul-23 03:34N 29°56' W 089°59'0 0.0
2016-Jul-23 02:34N 29°56' W 089°59'0 0.0
2016-Jul-23 01:33N 29°56' W 089°59'0 0.0
2016-Jul-23 00:33N 29°56' W 089°59'0 0.0
2016-Jul-22 23:33N 29°56' W 089°59'0 0.0
2016-Jul-22 22:33N 29°56' W 089°59'0 0.0
2016-Jul-22 21:33N 29°56' W 089°59'0 0.0
2016-Jul-22 20:33N 29°56' W 089°59'0 0.0
2016-Jul-22 19:33N 29°56' W 089°59'0 0.0
2016-Jul-22 18:33N 29°56' W 089°59'0 0.0
2016-Jul-22 17:33N 29°56' W 089°59'0 0.0
2016-Jul-22 16:33N 29°56' W 089°59'0 0.0
2016-Jul-22 15:33N 29°56' W 089°59'0 0.0
2016-Jul-22 14:33N 29°56' W 089°59'0 0.0
2016-Jul-22 13:33N 29°56' W 089°59'0 0.0
2016-Jul-22 12:32N 29°56' W 089°59'0 0.0
2016-Jul-22 11:33N 29°56' W 089°59'0 0.0
2016-Jul-22 10:33N 29°56' W 089°59'0 0.0
2016-Jul-22 09:33N 29°56' W 089°59'0 0.0
2016-Jul-22 08:33N 29°56' W 089°59'0 0.0
2016-Jul-22 07:33N 29°56' W 089°59'0 0.0
2016-Jul-22 05:33N 29°56' W 089°59'0 0.0
2016-Jul-22 04:32N 29°56' W 089°59'0 0.0
2016-Jul-22 03:33N 29°56' W 089°59'0 0.0
2016-Jul-22 02:33N 29°56' W 089°59'0 0.0
2016-Jul-22 01:33N 29°56' W 089°59'0 0.0
2016-Jul-22 00:33N 29°56' W 089°59'0 0.0
2016-Jul-21 23:33N 29°56' W 089°59'0 0.4
2016-Jul-21 22:33N 29°56' W 089°58'0 0.0
2016-Jul-21 21:33N 29°56' W 089°58'0 0.0
2016-Jul-21 20:33N 29°56' W 089°58'0 0.0
2016-Jul-21 19:33N 29°56' W 089°58'0 0.0
2016-Jul-21 18:33N 29°56' W 089°58'0 0.0
2016-Jul-21 17:33N 29°56' W 089°58'1 1.3
2016-Jul-21 16:33N 29°56' W 089°60'0 0.0
2016-Jul-21 15:33N 29°56' W 089°60'0 0.0
2016-Jul-21 14:33N 29°56' W 089°60'0 0.0
2016-Jul-21 13:33N 29°56' W 089°60'0 0.0
2016-Jul-21 12:33N 29°56' W 089°60'0 0.0
2016-Jul-21 11:33N 29°56' W 089°60'0 0.0
2016-Jul-21 10:33N 29°56' W 089°60'0 0.0
2016-Jul-21 09:33N 29°56' W 089°60'0 0.0
2016-Jul-21 08:33N 29°56' W 089°60'0 0.0
2016-Jul-21 07:33N 29°56' W 089°60'0 0.0
2016-Jul-21 06:33N 29°56' W 089°60'0 0.0
2016-Jul-21 05:33N 29°56' W 089°60'0 0.0
2016-Jul-21 04:33N 29°56' W 089°60'0 0.0
2016-Jul-21 03:33N 29°56' W 089°60'0 0.0
2016-Jul-21 02:33N 29°56' W 089°60'0 0.0
2016-Jul-21 01:34N 29°56' W 089°60'0 0.0
2016-Jul-21 00:33N 29°56' W 089°60'0 0.0
2016-Jul-20 23:33N 29°56' W 089°60'0 0.0
2016-Jul-20 22:33N 29°56' W 089°60'0 0.0
2016-Jul-20 21:33N 29°56' W 089°60'0 0.0
2016-Jul-20 20:33N 29°56' W 089°60'0 0.0
2016-Jul-20 19:33N 29°56' W 089°60'0 0.0
2016-Jul-20 18:33N 29°56' W 089°60'0 0.0
2016-Jul-20 17:33N 29°56' W 089°60'0 0.0
2016-Jul-20 16:33N 29°56' W 089°60'0 0.0
2016-Jul-20 15:33N 29°56' W 089°60'0 0.0
2016-Jul-20 14:33N 29°56' W 089°60'0 0.0
2016-Jul-20 13:33N 29°56' W 089°60'0 0.0
2016-Jul-20 12:33N 29°56' W 089°60'0 0.0
2016-Jul-20 11:33N 29°56' W 089°60'0 0.0
2016-Jul-20 10:33N 29°56' W 089°60'0 0.0
2016-Jul-20 09:34N 29°56' W 089°60'0 0.0
2016-Jul-20 08:33N 29°56' W 089°60'0 0.0
2016-Jul-20 07:33N 29°56' W 089°60'0 0.0
2016-Jul-20 06:34N 29°56' W 089°60'0 0.0
2016-Jul-20 05:33N 29°56' W 089°60'0 0.0
2016-Jul-20 04:33N 29°56' W 089°60'0 0.0
2016-Jul-20 03:33N 29°56' W 089°60'0 0.0
2016-Jul-20 02:33N 29°56' W 089°60'0 0.0
2016-Jul-20 01:33N 29°56' W 089°60'0 0.0
2016-Jul-20 00:33N 29°56' W 089°60'0 0.0
2016-Jul-19 23:33N 29°56' W 089°60'0 0.0
2016-Jul-19 22:33N 29°56' W 089°60'0 0.0
2016-Jul-19 21:33N 29°56' W 089°60'0 0.0
2016-Jul-19 20:33N 29°56' W 089°60'0 0.0
2016-Jul-19 19:33N 29°56' W 089°60'1 1.2
2016-Jul-19 18:33N 29°55' W 089°58'1 0.8
2016-Jul-19 17:33N 29°55' W 089°59'3 3.2
2016-Jul-19 16:33N 29°52' W 090°01'35 5.7
2016-Jul-19 10:29N 29°35' W 090°35'1 0.6
2016-Jul-19 09:33N 29°35' W 090°36'27 5.2
2016-Jul-19 04:19N 29°46' W 090°07'4 4.6
2016-Jul-19 03:28N 29°49' W 090°04'5 5.8
2016-Jul-19 02:33N 29°54' W 090°05'1 0.9
2016-Jul-19 01:33N 29°55' W 090°05'1 1.1
2016-Jul-19 00:34N 29°54' W 090°06'0 0.0
2016-Jul-18 23:33N 29°54' W 090°06'0 0.0
2016-Jul-18 22:33N 29°54' W 090°06'0 0.0
2016-Jul-18 21:33N 29°54' W 090°06'0 0.0
2016-Jul-18 20:33N 29°54' W 090°06'0 0.0
2016-Jul-18 19:34N 29°54' W 090°06'0 0.0
2016-Jul-18 18:33N 29°54' W 090°06'0 0.0
2016-Jul-18 17:33N 29°54' W 090°06'0 0.0
2016-Jul-18 16:33N 29°54' W 090°06'0 0.0
2016-Jul-18 15:33N 29°54' W 090°06'0 0.0
2016-Jul-18 14:33N 29°54' W 090°06'0 0.0
2016-Jul-18 13:33N 29°54' W 090°06'1 0.1
2016-Jul-18 04:11N 29°54' W 090°07'0 0.0
2016-Jul-18 02:31N 29°54' W 090°07'0 0.0
2016-Jul-17 23:18N 29°54' W 090°07'0 0.0
2016-Jul-17 22:27N 29°54' W 090°07'0 0.0
2016-Jul-17 21:33N 29°54' W 090°07'0 0.0
2016-Jul-17 20:33N 29°54' W 090°07'0 0.0
2016-Jul-17 19:33N 29°54' W 090°07'0 0.0
2016-Jul-17 18:33N 29°54' W 090°07'0 0.0
2016-Jul-17 17:33N 29°54' W 090°07'0 0.0
2016-Jul-17 16:33N 29°54' W 090°07'0 0.0
2016-Jul-17 15:33N 29°54' W 090°07'0 0.0
2016-Jul-17 14:32N 29°54' W 090°07'0 0.0
2016-Jul-17 13:33N 29°54' W 090°07'0 0.0
2016-Jul-17 12:33N 29°54' W 090°07'0 0.0
2016-Jul-17 11:33N 29°54' W 090°07'0 0.0
2016-Jul-17 10:33N 29°54' W 090°07'0 0.0
2016-Jul-17 09:33N 29°54' W 090°07'0 0.0
2016-Jul-17 08:33N 29°54' W 090°07'0 0.0
2016-Jul-17 07:33N 29°54' W 090°07'0 0.0
2016-Jul-17 06:33N 29°54' W 090°07'0 0.0
2016-Jul-17 04:33N 29°54' W 090°07'0 0.0
2016-Jul-17 03:33N 29°54' W 090°07'0 0.0
2016-Jul-17 02:33N 29°54' W 090°07'0 0.0
2016-Jul-17 01:33N 29°54' W 090°07'1 1.0
2016-Jul-17 00:33N 29°54' W 090°06'0 0.0
2016-Jul-16 23:33N 29°54' W 090°06'0 0.0
2016-Jul-16 22:33N 29°54' W 090°06'0 0.0
2016-Jul-16 21:33N 29°54' W 090°06'0 0.0
2016-Jul-16 20:33N 29°54' W 090°06'0 0.0
2016-Jul-16 19:33N 29°54' W 090°06'0 0.0
2016-Jul-16 18:33N 29°54' W 090°06'0 0.0
2016-Jul-16 17:33N 29°54' W 090°06'0 0.0
2016-Jul-16 16:33N 29°54' W 090°06'0 0.0
2016-Jul-16 15:34N 29°54' W 090°06'0 0.0
2016-Jul-16 14:33N 29°54' W 090°06'0 0.0
2016-Jul-16 13:33N 29°54' W 090°06'0 0.0
2016-Jul-16 12:33N 29°54' W 090°06'0 0.0
2016-Jul-16 11:33N 29°54' W 090°06'0 0.0
2016-Jul-16 10:33N 29°54' W 090°06'0 0.0
2016-Jul-16 09:33N 29°54' W 090°06'0 0.0
2016-Jul-16 08:33N 29°54' W 090°06'0 0.0
2016-Jul-16 07:33N 29°54' W 090°06'0 0.0
2016-Jul-16 06:33N 29°54' W 090°06'5 2.7
2016-Jul-16 04:33N 29°58' W 090°02'0 0.2
2016-Jul-16 03:33N 29°58' W 090°02'0 0.0
2016-Jul-16 02:33N 29°58' W 090°02'1 1.3
2016-Jul-16 01:33N 29°60' W 090°01'0 0.0
2016-Jul-16 00:33N 29°60' W 090°01'0 0.0
2016-Jul-15 23:33N 29°60' W 090°01'0 0.0
2016-Jul-15 22:33N 29°60' W 090°01'0 0.0
2016-Jul-15 21:33N 29°60' W 090°01'0 0.0
2016-Jul-15 20:33N 29°60' W 090°01'0 0.0
2016-Jul-15 19:33N 29°60' W 090°01'0 0.0
2016-Jul-15 18:33N 29°60' W 090°01'0 0.0
2016-Jul-15 17:33N 29°60' W 090°01'0 0.0
2016-Jul-15 16:33N 29°60' W 090°01'0 0.0
2016-Jul-15 15:33N 29°60' W 090°01'0 0.0
2016-Jul-15 14:33N 29°60' W 090°01'0 0.0
2016-Jul-15 13:33N 29°60' W 090°01'0 0.0
2016-Jul-15 12:33N 29°60' W 090°01'0 0.0
2016-Jul-15 11:33N 29°60' W 090°01'0 0.0
2016-Jul-15 10:33N 29°60' W 090°01'0 0.0
2016-Jul-15 09:33N 29°60' W 090°01'0 0.0
2016-Jul-15 08:33N 29°60' W 090°01'6 5.7
2016-Jul-15 07:32N 30°01' W 089°55'1 0.5
2016-Jul-15 06:29N 30°01' W 089°54'0 0.0
2016-Jul-15 05:33N 30°01' W 089°54'0 0.0
2016-Jul-15 04:33N 30°01' W 089°54'0 0.0
2016-Jul-15 03:33N 30°01' W 089°54'0 0.0
2016-Jul-15 02:33N 30°01' W 089°54'0 0.0
2016-Jul-15 01:33N 30°01' W 089°54'0 0.0
2016-Jul-14 21:28N 30°01' W 089°54'0 0.0
2016-Jul-14 20:33N 30°01' W 089°54'0 0.0
2016-Jul-14 19:32N 30°01' W 089°54'0 0.0
2016-Jul-14 18:33N 30°01' W 089°54'0 0.0
2016-Jul-14 17:33N 30°01' W 089°54'0 0.0
2016-Jul-14 16:33N 30°01' W 089°54'0 0.0
2016-Jul-14 15:33N 30°01' W 089°54'0 0.0
2016-Jul-14 14:33N 30°01' W 089°54'0 0.0
2016-Jul-14 13:33N 30°01' W 089°54'0 0.0
2016-Jul-14 12:33N 30°01' W 089°54'0 0.0
2016-Jul-14 11:33N 30°01' W 089°54'  
Track history (hours):
 
Tides and Currents Weather Stations Pressure Air Temp Water Temp Dewpoint Dewpoint Depression Visibility Wind Speed Wind Dir Waves Ship Positions

Teddy Meyer

Owner: LeBeouf Bros. Towing, LLC, Houma, LA. More information available from US FCC via Universal Licensing System and Coast Guard Vessel Documentation Center.

Last reported at 2016-Jul-24 10:33 UTC. Time now 2016-Jul-26 19:51 UTC.
Position N 30°00' W 089°56'.

; draft 3 m.

MMSI: 367507220.

Date/timePositionNaut miles runAvg speedWind from/ knotsBaromVisibWave heightAir tempDewpointWater temp
2016-Jul-24 10:33N 30°00' W 089°56'5 5.5
2016-Jul-24 09:33N 29°58' W 090°02'1 1.1
2016-Jul-24 08:33N 29°57' W 090°01'2 1.7
2016-Jul-24 07:33N 29°56' W 089°60'0 0.0
2016-Jul-24 06:34N 29°56' W 089°60'0 0.0
2016-Jul-24 05:33N 29°56' W 089°60'0 0.0
2016-Jul-24 04:33N 29°56' W 089°60'0 0.0
2016-Jul-24 03:33N 29°56' W 089°60'0 0.0
2016-Jul-24 02:34N 29°56' W 089°60'0 0.0
2016-Jul-24 01:34N 29°56' W 089°60'0 0.0
2016-Jul-24 00:33N 29°56' W 089°60'0 0.0
2016-Jul-23 23:33N 29°56' W 089°60'0 0.0
2016-Jul-23 22:34N 29°56' W 089°60'0 0.0
2016-Jul-23 21:34N 29°56' W 089°60'0 0.0
2016-Jul-23 20:34N 29°56' W 089°60'0 0.0
2016-Jul-23 19:34N 29°56' W 089°60'0 0.0
2016-Jul-23 18:34N 29°56' W 089°60'0 0.0
2016-Jul-23 17:33N 29°56' W 089°60'0 0.0
2016-Jul-23 16:33N 29°56' W 089°60'0 0.0
2016-Jul-23 15:33N 29°56' W 089°60'0 0.0
2016-Jul-23 14:33N 29°56' W 089°60'0 0.0
2016-Jul-23 13:34N 29°56' W 089°60'0 0.0
2016-Jul-23 12:33N 29°56' W 089°60'1 1.1
2016-Jul-23 11:34N 29°56' W 089°58'0 0.0
2016-Jul-23 10:34N 29°56' W 089°58'0 0.0
2016-Jul-23 09:33N 29°56' W 089°58'0 0.0
2016-Jul-23 08:33N 29°56' W 089°58'0 0.0
2016-Jul-23 07:33N 29°56' W 089°58'0 0.1
2016-Jul-23 06:34N 29°56' W 089°58'0 0.0
2016-Jul-23 04:33N 29°56' W 089°59'0 0.0
2016-Jul-23 03:34N 29°56' W 089°59'0 0.0
2016-Jul-23 02:34N 29°56' W 089°59'0 0.0
2016-Jul-23 01:33N 29°56' W 089°59'0 0.0
2016-Jul-23 00:33N 29°56' W 089°59'0 0.0
2016-Jul-22 23:33N 29°56' W 089°59'0 0.0
2016-Jul-22 22:33N 29°56' W 089°59'0 0.0
2016-Jul-22 21:33N 29°56' W 089°59'0 0.0
2016-Jul-22 20:33N 29°56' W 089°59'0 0.0
2016-Jul-22 19:33N 29°56' W 089°59'0 0.0
2016-Jul-22 18:33N 29°56' W 089°59'0 0.0
2016-Jul-22 17:33N 29°56' W 089°59'0 0.0
2016-Jul-22 16:33N 29°56' W 089°59'0 0.0
2016-Jul-22 15:33N 29°56' W 089°59'0 0.0
2016-Jul-22 14:33N 29°56' W 089°59'0 0.0
2016-Jul-22 13:33N 29°56' W 089°59'0 0.0
2016-Jul-22 12:32N 29°56' W 089°59'0 0.0
2016-Jul-22 11:33N 29°56' W 089°59'0 0.0
2016-Jul-22 10:33N 29°56' W 089°59'0 0.0
2016-Jul-22 09:33N 29°56' W 089°59'0 0.0
2016-Jul-22 08:33N 29°56' W 089°59'0 0.0
2016-Jul-22 07:33N 29°56' W 089°59'0 0.0
2016-Jul-22 05:33N 29°56' W 089°59'0 0.0
2016-Jul-22 04:32N 29°56' W 089°59'0 0.0
2016-Jul-22 03:33N 29°56' W 089°59'0 0.0
2016-Jul-22 02:33N 29°56' W 089°59'0 0.0
2016-Jul-22 01:33N 29°56' W 089°59'0 0.0
2016-Jul-22 00:33N 29°56' W 089°59'0 0.0
2016-Jul-21 23:33N 29°56' W 089°59'0 0.4
2016-Jul-21 22:33N 29°56' W 089°58'0 0.0
2016-Jul-21 21:33N 29°56' W 089°58'0 0.0
2016-Jul-21 20:33N 29°56' W 089°58'0 0.0
2016-Jul-21 19:33N 29°56' W 089°58'0 0.0
2016-Jul-21 18:33N 29°56' W 089°58'0 0.0
2016-Jul-21 17:33N 29°56' W 089°58'1 1.3
2016-Jul-21 16:33N 29°56' W 089°60'0 0.0
2016-Jul-21 15:33N 29°56' W 089°60'0 0.0
2016-Jul-21 14:33N 29°56' W 089°60'0 0.0
2016-Jul-21 13:33N 29°56' W 089°60'0 0.0
2016-Jul-21 12:33N 29°56' W 089°60'0 0.0
2016-Jul-21 11:33N 29°56' W 089°60'0 0.0
2016-Jul-21 10:33N 29°56' W 089°60'0 0.0
2016-Jul-21 09:33N 29°56' W 089°60'0 0.0
2016-Jul-21 08:33N 29°56' W 089°60'0 0.0
2016-Jul-21 07:33N 29°56' W 089°60'0 0.0
2016-Jul-21 06:33N 29°56' W 089°60'0 0.0
2016-Jul-21 05:33N 29°56' W 089°60'0 0.0
2016-Jul-21 04:33N 29°56' W 089°60'0 0.0
2016-Jul-21 03:33N 29°56' W 089°60'0 0.0
2016-Jul-21 02:33N 29°56' W 089°60'0 0.0
2016-Jul-21 01:34N 29°56' W 089°60'0 0.0
2016-Jul-21 00:33N 29°56' W 089°60'0 0.0
2016-Jul-20 23:33N 29°56' W 089°60'0 0.0
2016-Jul-20 22:33N 29°56' W 089°60'0 0.0
2016-Jul-20 21:33N 29°56' W 089°60'0 0.0
2016-Jul-20 20:33N 29°56' W 089°60'0 0.0
2016-Jul-20 19:33N 29°56' W 089°60'0 0.0
2016-Jul-20 18:33N 29°56' W 089°60'0 0.0
2016-Jul-20 17:33N 29°56' W 089°60'0 0.0
2016-Jul-20 16:33N 29°56' W 089°60'0 0.0
2016-Jul-20 15:33N 29°56' W 089°60'0 0.0
2016-Jul-20 14:33N 29°56' W 089°60'0 0.0
2016-Jul-20 13:33N 29°56' W 089°60'0 0.0
2016-Jul-20 12:33N 29°56' W 089°60'0 0.0
2016-Jul-20 11:33N 29°56' W 089°60'0 0.0
2016-Jul-20 10:33N 29°56' W 089°60'0 0.0
2016-Jul-20 09:34N 29°56' W 089°60'0 0.0
2016-Jul-20 08:33N 29°56' W 089°60'0 0.0
2016-Jul-20 07:33N 29°56' W 089°60'0 0.0
2016-Jul-20 06:34N 29°56' W 089°60'0 0.0
2016-Jul-20 05:33N 29°56' W 089°60'0 0.0
2016-Jul-20 04:33N 29°56' W 089°60'0 0.0
2016-Jul-20 03:33N 29°56' W 089°60'0 0.0
2016-Jul-20 02:33N 29°56' W 089°60'0 0.0
2016-Jul-20 01:33N 29°56' W 089°60'0 0.0
2016-Jul-20 00:33N 29°56' W 089°60'0 0.0
2016-Jul-19 23:33N 29°56' W 089°60'0 0.0
2016-Jul-19 22:33N 29°56' W 089°60'0 0.0
2016-Jul-19 21:33N 29°56' W 089°60'0 0.0
2016-Jul-19 20:33N 29°56' W 089°60'0 0.0
2016-Jul-19 19:33N 29°56' W 089°60'1 1.2
2016-Jul-19 18:33N 29°55' W 089°58'1 0.8
2016-Jul-19 17:33N 29°55' W 089°59'3 3.2
2016-Jul-19 16:33N 29°52' W 090°01'35 5.7
2016-Jul-19 10:29N 29°35' W 090°35'1 0.6
2016-Jul-19 09:33N 29°35' W 090°36'27 5.2
2016-Jul-19 04:19N 29°46' W 090°07'4 4.6
2016-Jul-19 03:28N 29°49' W 090°04'5 5.8
2016-Jul-19 02:33N 29°54' W 090°05'1 0.9
2016-Jul-19 01:33N 29°55' W 090°05'1 1.1
2016-Jul-19 00:34N 29°54' W 090°06'0 0.0
2016-Jul-18 23:33N 29°54' W 090°06'0 0.0
2016-Jul-18 22:33N 29°54' W 090°06'0 0.0
2016-Jul-18 21:33N 29°54' W 090°06'0 0.0
2016-Jul-18 20:33N 29°54' W 090°06'0 0.0
2016-Jul-18 19:34N 29°54' W 090°06'0 0.0
2016-Jul-18 18:33N 29°54' W 090°06'0 0.0
2016-Jul-18 17:33N 29°54' W 090°06'0 0.0
2016-Jul-18 16:33N 29°54' W 090°06'0 0.0
2016-Jul-18 15:33N 29°54' W 090°06'0 0.0
2016-Jul-18 14:33N 29°54' W 090°06'0 0.0
2016-Jul-18 13:33N 29°54' W 090°06'1 0.1
2016-Jul-18 04:11N 29°54' W 090°07'0 0.0
2016-Jul-18 02:31N 29°54' W 090°07'0 0.0
2016-Jul-17 23:18N 29°54' W 090°07'0 0.0
2016-Jul-17 22:27N 29°54' W 090°07'0 0.0
2016-Jul-17 21:33N 29°54' W 090°07'0 0.0
2016-Jul-17 20:33N 29°54' W 090°07'0 0.0
2016-Jul-17 19:33N 29°54' W 090°07'0 0.0
2016-Jul-17 18:33N 29°54' W 090°07'0 0.0
2016-Jul-17 17:33N 29°54' W 090°07'0 0.0
2016-Jul-17 16:33N 29°54' W 090°07'0 0.0
2016-Jul-17 15:33N 29°54' W 090°07'0 0.0
2016-Jul-17 14:32N 29°54' W 090°07'0 0.0
2016-Jul-17 13:33N 29°54' W 090°07'0 0.0
2016-Jul-17 12:33N 29°54' W 090°07'0 0.0
2016-Jul-17 11:33N 29°54' W 090°07'0 0.0
2016-Jul-17 10:33N 29°54' W 090°07'0 0.0
2016-Jul-17 09:33N 29°54' W 090°07'0 0.0
2016-Jul-17 08:33N 29°54' W 090°07'0 0.0
2016-Jul-17 07:33N 29°54' W 090°07'0 0.0
2016-Jul-17 06:33N 29°54' W 090°07'0 0.0
2016-Jul-17 04:33N 29°54' W 090°07'0 0.0
2016-Jul-17 03:33N 29°54' W 090°07'0 0.0
2016-Jul-17 02:33N 29°54' W 090°07'0 0.0
2016-Jul-17 01:33N 29°54' W 090°07'1 1.0
2016-Jul-17 00:33N 29°54' W 090°06'0 0.0
2016-Jul-16 23:33N 29°54' W 090°06'0 0.0
2016-Jul-16 22:33N 29°54' W 090°06'0 0.0
2016-Jul-16 21:33N 29°54' W 090°06'0 0.0
2016-Jul-16 20:33N 29°54' W 090°06'0 0.0
2016-Jul-16 19:33N 29°54' W 090°06'0 0.0
2016-Jul-16 18:33N 29°54' W 090°06'0 0.0
2016-Jul-16 17:33N 29°54' W 090°06'0 0.0
2016-Jul-16 16:33N 29°54' W 090°06'0 0.0
2016-Jul-16 15:34N 29°54' W 090°06'0 0.0
2016-Jul-16 14:33N 29°54' W 090°06'0 0.0
2016-Jul-16 13:33N 29°54' W 090°06'0 0.0
2016-Jul-16 12:33N 29°54' W 090°06'0 0.0
2016-Jul-16 11:33N 29°54' W 090°06'0 0.0
2016-Jul-16 10:33N 29°54' W 090°06'0 0.0
2016-Jul-16 09:33N 29°54' W 090°06'0 0.0
2016-Jul-16 08:33N 29°54' W 090°06'0 0.0
2016-Jul-16 07:33N 29°54' W 090°06'0 0.0
2016-Jul-16 06:33N 29°54' W 090°06'5 2.7
2016-Jul-16 04:33N 29°58' W 090°02'0 0.2
2016-Jul-16 03:33N 29°58' W 090°02'0 0.0
2016-Jul-16 02:33N 29°58' W 090°02'1 1.3
2016-Jul-16 01:33N 29°60' W 090°01'0 0.0
2016-Jul-16 00:33N 29°60' W 090°01'0 0.0
2016-Jul-15 23:33N 29°60' W 090°01'0 0.0
2016-Jul-15 22:33N 29°60' W 090°01'0 0.0
2016-Jul-15 21:33N 29°60' W 090°01'0 0.0
2016-Jul-15 20:33N 29°60' W 090°01'0 0.0
2016-Jul-15 19:33N 29°60' W 090°01'0 0.0
2016-Jul-15 18:33N 29°60' W 090°01'0 0.0
2016-Jul-15 17:33N 29°60' W 090°01'0 0.0
2016-Jul-15 16:33N 29°60' W 090°01'0 0.0
2016-Jul-15 15:33N 29°60' W 090°01'0 0.0
2016-Jul-15 14:33N 29°60' W 090°01'0 0.0
2016-Jul-15 13:33N 29°60' W 090°01'0 0.0
2016-Jul-15 12:33N 29°60' W 090°01'0 0.0
2016-Jul-15 11:33N 29°60' W 090°01'0 0.0
2016-Jul-15 10:33N 29°60' W 090°01'0 0.0
2016-Jul-15 09:33N 29°60' W 090°01'0 0.0
2016-Jul-15 08:33N 29°60' W 090°01'6 5.7
2016-Jul-15 07:32N 30°01' W 089°55'1 0.5
2016-Jul-15 06:29N 30°01' W 089°54'0 0.0
2016-Jul-15 05:33N 30°01' W 089°54'0 0.0
2016-Jul-15 04:33N 30°01' W 089°54'0 0.0
2016-Jul-15 03:33N 30°01' W 089°54'0 0.0
2016-Jul-15 02:33N 30°01' W 089°54'0 0.0
2016-Jul-15 01:33N 30°01' W 089°54'0 0.0
2016-Jul-14 21:28N 30°01' W 089°54'0 0.0
2016-Jul-14 20:33N 30°01' W 089°54'0 0.0
2016-Jul-14 19:32N 30°01' W 089°54'0 0.0
2016-Jul-14 18:33N 30°01' W 089°54'0 0.0
2016-Jul-14 17:33N 30°01' W 089°54'0 0.0
2016-Jul-14 16:33N 30°01' W 089°54'0 0.0
2016-Jul-14 15:33N 30°01' W 089°54'0 0.0
2016-Jul-14 14:33N 30°01' W 089°54'0 0.0
2016-Jul-14 13:33N 30°01' W 089°54'0 0.0
2016-Jul-14 12:33N 30°01' W 089°54'0 0.0
2016-Jul-14 11:33N 30°01' W 089°54'  

Dump ship's entire track history